Time;durP1;ratioP1;P1;durP2;ratioP2;P2;SDS_P1;SDS_P2;PMS_P1;PMS_P2;Temp;Humidity;BMP_temperature;BMP_pressure;BME280_temperature;BME280_humidity;BME280_pressure;Samples;Min_cycle;Max_cycle;Signal;HPM_P1;HPM_P2
2022/11/18 00:01:51;;;;;;;8.47;2.90;;;10.50;99.90;;;;;;5043674;28;20432;-90
2022/11/18 00:04:39;;;;;;;6.77;3.10;;;10.50;99.90;;;;;;5031597;28;20808;-90
2022/11/18 00:07:26;;;;;;;10.83;3.47;;;10.50;99.90;;;;;;5047797;28;20820;-91
2022/11/18 00:10:11;;;;;;;6.00;2.70;;;10.50;99.90;;;;;;5045558;28;20420;-90
2022/11/18 00:16:01;;;;;;;3.90;2.93;;;10.50;99.90;;;;;;5038514;28;20459;-91
2022/11/18 00:18:48;;;;;;;4.27;2.23;;;10.50;99.90;;;;;;5038779;28;20808;-91
2022/11/18 00:21:34;;;;;;;5.43;2.70;;;10.50;99.90;;;;;;5027075;28;21049;-90
2022/11/18 00:24:20;;;;;;;7.00;2.40;;;10.40;99.90;;;;;;5029128;28;20485;-90
2022/11/18 00:27:07;;;;;;;5.97;2.63;;;10.40;99.90;;;;;;5032251;28;20495;-90
2022/11/18 00:29:52;;;;;;;6.70;2.70;;;10.30;99.90;;;;;;5031206;28;21042;-90
2022/11/18 00:32:38;;;;;;;10.27;2.30;;;10.20;99.90;;;;;;5031002;28;20484;-90
2022/11/18 00:35:25;;;;;;;4.47;2.30;;;10.30;99.90;;;;;;5026358;28;21028;-90
2022/11/18 00:38:11;;;;;;;11.30;2.70;;;10.20;99.90;;;;;;5026536;28;20449;-89
2022/11/18 00:41:00;;;;;;;3.67;2.77;;;10.20;99.90;;;;;;5038544;28;20432;-90
2022/11/18 00:43:45;;;;;;;4.80;2.20;;;10.10;99.90;;;;;;5034644;28;20443;-90
2022/11/18 00:46:31;;;;;;;5.00;2.77;;;10.10;99.90;;;;;;5042046;28;20421;-90
2022/11/18 00:49:16;;;;;;;4.57;2.40;;;10.10;99.90;;;;;;5034609;28;20467;-90
2022/11/18 00:52:04;;;;;;;5.93;2.80;;;10.10;99.90;;;;;;5035478;28;20452;-91
2022/11/18 00:54:49;;;;;;;13.00;3.13;;;10.10;99.90;;;;;;5029131;28;20432;-90
2022/11/18 00:57:35;;;;;;;4.67;2.43;;;10.10;99.90;;;;;;5033077;28;20420;-90
2022/11/18 01:00:23;;;;;;;3.43;2.70;;;10.10;99.90;;;;;;5041363;28;20964;-90
2022/11/18 01:03:09;;;;;;;6.00;3.03;;;10.20;99.90;;;;;;5039545;28;20507;-90
2022/11/18 01:05:55;;;;;;;5.30;2.30;;;10.30;99.90;;;;;;5040360;28;20478;-90
2022/11/18 01:08:42;;;;;;;3.30;2.50;;;10.20;99.90;;;;;;5038986;28;20451;-91
2022/11/18 01:14:31;;;;;;;5.57;2.10;;;10.30;99.90;;;;;;5037996;28;20419;-90
2022/11/18 01:17:17;;;;;;;10.00;2.83;;;10.40;99.90;;;;;;5043662;28;20413;-90
2022/11/18 01:20:04;;;;;;;4.40;2.43;;;10.40;99.90;;;;;;5033082;28;20436;-90
2022/11/18 01:22:50;;;;;;;3.43;2.87;;;10.50;99.90;;;;;;5033350;28;20434;-90
2022/11/18 01:25:38;;;;;;;4.20;2.20;;;10.40;99.90;;;;;;5040460;28;20405;-90
2022/11/18 01:28:26;;;;;;;11.57;2.70;;;10.50;99.90;;;;;;5031537;28;20468;-89
2022/11/18 01:31:14;;;;;;;3.90;2.47;;;10.50;99.90;;;;;;5035916;28;20456;-91
2022/11/18 01:34:00;;;;;;;7.27;2.70;;;10.50;99.90;;;;;;5032373;28;20423;-90
2022/11/18 01:36:45;;;;;;;8.13;3.20;;;10.50;99.90;;;;;;5041888;28;20819;-89
2022/11/18 01:39:31;;;;;;;6.90;3.10;;;10.50;99.90;;;;;;5049202;28;20807;-90
2022/11/18 01:42:18;;;;;;;5.23;2.90;;;10.60;99.90;;;;;;5036738;28;20484;-89
2022/11/18 01:45:15;;;;;;;6.93;3.23;;;10.60;99.90;;;;;;5029287;28;20439;-90
2022/11/18 01:48:04;;;;;;;4.80;2.53;;;10.60;99.90;;;;;;5026586;28;20435;-90
2022/11/18 01:50:54;;;;;;;3.80;2.53;;;10.60;99.90;;;;;;5024923;28;20523;-89
2022/11/18 01:53:45;;;;;;;5.40;2.27;;;10.70;99.90;;;;;;5020110;28;20451;-90
2022/11/18 01:56:37;;;;;;;4.00;2.63;;;10.70;99.90;;;;;;5027820;28;20491;-90
2022/11/18 01:59:27;;;;;;;6.73;2.80;;;10.70;99.90;;;;;;5041361;28;20400;-89
2022/11/18 02:02:14;;;;;;;6.43;2.47;;;10.70;99.90;;;;;;5031000;28;20529;-89
2022/11/18 02:05:02;;;;;;;4.60;2.60;;;10.70;99.90;;;;;;5027979;28;20571;-89
2022/11/18 02:07:49;;;;;;;8.60;2.90;;;10.70;99.90;;;;;;5038616;28;20471;-90
2022/11/18 02:10:34;;;;;;;5.80;3.03;;;10.70;99.90;;;;;;5036726;28;20510;-90
2022/11/18 02:13:21;;;;;;;8.40;2.97;;;10.70;99.90;;;;;;5027789;28;20456;-89
2022/11/18 02:16:14;;;;;;;6.40;3.20;;;10.70;99.90;;;;;;5026983;28;20479;-89
2022/11/18 02:19:04;;;;;;;5.80;3.10;;;10.70;99.90;;;;;;5035325;28;20424;-90
2022/11/18 02:21:59;;;;;;;7.10;3.83;;;10.60;99.90;;;;;;5026983;28;20485;-90
2022/11/18 02:24:55;;;;;;;5.10;3.83;;;10.60;99.90;;;;;;5036848;28;20449;-90
2022/11/18 02:28:11;;;;;;;6.83;3.73;;;10.60;99.90;;;;;;5026255;28;20525;-90
2022/11/18 02:31:04;;;;;;;7.07;4.20;;;10.60;99.90;;;;;;5023922;28;20444;-90
2022/11/18 02:33:56;;;;;;;8.23;3.50;;;10.70;99.90;;;;;;5031053;28;20428;-90
2022/11/18 02:36:47;;;;;;;4.50;3.73;;;10.70;99.90;;;;;;5030318;28;20452;-90
2022/11/18 02:39:37;;;;;;;4.27;3.87;;;10.50;99.90;;;;;;5027606;28;20499;-91
2022/11/18 02:42:24;;;;;;;5.43;4.43;;;10.50;99.90;;;;;;5032651;28;20503;-90
2022/11/18 02:45:15;;;;;;;9.80;4.70;;;10.50;99.90;;;;;;5027086;28;20464;-91
2022/11/18 02:48:07;;;;;;;7.70;4.90;;;10.60;99.90;;;;;;5034661;28;20463;-90
2022/11/18 02:50:54;;;;;;;5.93;4.23;;;10.50;99.90;;;;;;5030117;28;20814;-91
2022/11/18 02:53:42;;;;;;;9.17;4.90;;;10.40;99.90;;;;;;5035048;28;20995;-90
2022/11/18 02:56:29;;;;;;;6.47;4.60;;;10.50;99.90;;;;;;5023855;28;20437;-90
2022/11/18 02:59:18;;;;;;;8.40;4.60;;;10.60;99.90;;;;;;5039559;28;20464;-90
2022/11/18 03:02:04;;;;;;;7.70;4.20;;;10.50;99.90;;;;;;5033576;28;20484;-91
2022/11/18 03:04:55;;;;;;;6.63;4.70;;;10.60;99.90;;;;;;5032950;28;20436;-91
2022/11/18 03:07:43;;;;;;;10.73;4.53;;;10.60;99.90;;;;;;5035842;28;20434;-90
2022/11/18 03:10:35;;;;;;;8.50;5.40;;;10.50;99.90;;;;;;5040046;28;20486;-91
2022/11/18 03:13:26;;;;;;;5.53;4.10;;;10.60;99.90;;;;;;5029331;28;20437;-91
2022/11/18 03:16:18;;;;;;;6.30;4.50;;;10.60;99.90;;;;;;5023712;28;20468;-91
2022/11/18 03:19:12;;;;;;;8.10;5.07;;;10.60;99.90;;;;;;5032258;28;20540;-91
2022/11/18 03:22:07;;;;;;;6.73;4.50;;;10.60;99.90;;;;;;5030177;28;20592;-91
2022/11/18 03:24:59;;;;;;;7.53;4.50;;;10.60;99.90;;;;;;5029322;28;20457;-91
2022/11/18 03:27:51;;;;;;;7.67;6.03;;;10.60;99.90;;;;;;5025922;28;20407;-91
2022/11/18 03:30:38;;;;;;;8.30;4.70;;;10.70;99.90;;;;;;5031605;28;20487;-90
2022/11/18 03:33:28;;;;;;;7.97;4.30;;;10.70;99.90;;;;;;5029007;28;20452;-90
2022/11/18 03:36:17;;;;;;;5.53;4.83;;;10.70;99.90;;;;;;5031729;28;20455;-90
2022/11/18 03:39:06;;;;;;;7.10;5.50;;;10.70;99.90;;;;;;5029448;28;20435;-89
2022/11/18 03:41:55;;;;;;;5.80;4.40;;;10.80;99.90;;;;;;5030865;28;20443;-90
2022/11/18 03:44:46;;;;;;;6.60;3.80;;;10.80;99.90;;;;;;5029904;28;20499;-90
2022/11/18 03:47:35;;;;;;;4.47;4.07;;;10.90;99.90;;;;;;5040655;28;20452;-91
2022/11/18 03:50:24;;;;;;;9.37;4.13;;;10.80;99.90;;;;;;5027413;28;20424;-89
2022/11/18 03:53:12;;;;;;;8.37;4.90;;;10.80;99.90;;;;;;5045981;28;20430;-90
2022/11/18 03:56:05;;;;;;;8.63;3.87;;;10.90;99.90;;;;;;5032984;28;20428;-90
2022/11/18 03:58:57;;;;;;;6.83;3.57;;;10.80;99.90;;;;;;5036126;28;20388;-90
2022/11/18 04:01:46;;;;;;;8.13;4.03;;;10.80;99.90;;;;;;5032306;28;20468;-90
2022/11/18 04:04:32;;;;;;;7.70;4.70;;;10.80;99.90;;;;;;5034158;28;20499;-90
2022/11/18 04:07:24;;;;;;;6.17;4.13;;;10.70;99.90;;;;;;5038114;28;20468;-91
2022/11/18 04:10:16;;;;;;;5.00;4.13;;;10.70;99.90;;;;;;5033586;28;20496;-91
2022/11/18 04:13:08;;;;;;;5.10;4.17;;;10.70;99.90;;;;;;5022247;28;20792;-90
2022/11/18 04:15:54;;;;;;;4.77;4.33;;;10.70;99.90;;;;;;5035471;28;20468;-91
2022/11/18 04:18:40;;;;;;;4.87;4.37;;;10.70;99.90;;;;;;5033230;28;20489;-91
2022/11/18 04:21:25;;;;;;;6.73;4.63;;;10.80;99.90;;;;;;5034028;28;20483;-91
2022/11/18 04:24:11;;;;;;;10.03;4.93;;;10.80;99.90;;;;;;5057191;22;20487;-74
2022/11/18 04:26:56;;;;;;;5.03;4.63;;;10.80;99.90;;;;;;5069509;28;20410;-73
2022/11/18 04:29:43;;;;;;;4.83;4.40;;;10.80;99.90;;;;;;5039252;28;20446;-74
2022/11/18 04:32:29;;;;;;;10.00;5.00;;;10.80;99.90;;;;;;5039633;28;20439;-73
2022/11/18 04:35:15;;;;;;;11.40;6.30;;;10.80;99.90;;;;;;5062833;28;20470;-74
2022/11/18 04:38:00;;;;;;;9.73;8.73;;;10.70;99.90;;;;;;5055059;28;20541;-74
2022/11/18 04:40:46;;;;;;;9.90;9.00;;;10.80;99.90;;;;;;5039633;28;20426;-73
2022/11/18 04:43:32;;;;;;;10.40;7.77;;;10.90;99.90;;;;;;5057739;28;20940;-73
2022/11/18 04:46:19;;;;;;;9.73;8.73;;;10.80;99.90;;;;;;5059561;28;20526;-74
2022/11/18 04:49:04;;;;;;;9.13;8.33;;;10.70;99.90;;;;;;5055278;28;20471;-74
2022/11/18 04:51:51;;;;;;;8.87;8.03;;;10.60;99.90;;;;;;5045193;28;20494;-73
2022/11/18 04:54:36;;;;;;;11.90;8.93;;;10.60;99.90;;;;;;5058318;28;20891;-73
2022/11/18 04:57:22;;;;;;;8.87;8.07;;;10.70;99.90;;;;;;5051628;28;20824;-74
2022/11/18 05:00:09;;;;;;;7.90;7.00;;;10.70;99.90;;;;;;5053021;28;20422;-74
2022/11/18 05:02:55;;;;;;;11.10;7.73;;;10.70;99.90;;;;;;5053066;28;20423;-73
2022/11/18 05:05:41;;;;;;;7.70;6.70;;;10.60;99.90;;;;;;5056864;28;20464;-74
2022/11/18 05:08:26;;;;;;;9.27;7.87;;;10.60;99.90;;;;;;5051752;28;21007;-74
2022/11/18 05:14:15;;;;;;;10.37;7.23;;;10.50;99.90;;;;;;5058510;28;20443;-73
2022/11/18 05:17:02;;;;;;;7.67;6.87;;;10.50;99.90;;;;;;5049829;28;20426;-74
2022/11/18 05:19:49;;;;;;;7.73;6.97;;;10.50;99.90;;;;;;5049003;28;20435;-74
2022/11/18 05:22:35;;;;;;;8.10;6.63;;;10.60;99.90;;;;;;5056713;28;20456;-74
2022/11/18 05:25:20;;;;;;;10.17;7.10;;;10.70;99.90;;;;;;5054808;28;20442;-73
2022/11/18 05:28:06;;;;;;;8.03;7.17;;;10.80;99.90;;;;;;5058614;28;20428;-73
2022/11/18 05:30:52;;;;;;;8.03;7.23;;;10.80;99.90;;;;;;5054079;28;20500;-73
2022/11/18 05:33:37;;;;;;;9.70;7.60;;;10.90;99.90;;;;;;5062625;28;20434;-73
2022/11/18 05:36:24;;;;;;;11.77;8.27;;;10.90;99.90;;;;;;5048569;28;20454;-73
2022/11/18 05:39:10;;;;;;;11.47;9.57;;;10.80;99.90;;;;;;5039142;28;20959;-73
2022/11/18 05:44:59;;;;;;;9.73;8.17;;;10.80;99.90;;;;;;5054318;28;20804;-73
2022/11/18 05:50:46;;;;;;;10.10;8.53;;;10.70;99.90;;;;;;5046907;28;20549;-73
2022/11/18 05:53:34;;;;;;;12.33;8.00;;;10.60;99.90;;;;;;5057431;28;20423;-73
2022/11/18 05:56:22;;;;;;;11.23;7.20;;;10.50;99.90;;;;;;5062348;28;20397;-73
2022/11/18 05:59:08;;;;;;;11.33;6.30;;;10.50;99.90;;;;;;5044542;28;20435;-73
2022/11/18 06:01:58;;;;;;;6.13;5.50;;;10.40;99.90;;;;;;5051126;28;20801;-74
2022/11/18 06:04:49;;;;;;;4.97;4.37;;;10.20;99.90;;;;;;5050340;28;20505;-73
2022/11/18 06:07:38;;;;;;;3.67;2.80;;;10.10;99.90;;;;;;5047256;28;20455;-73
2022/11/18 06:10:31;;;;;;;4.23;2.60;;;10.10;99.90;;;;;;5048910;28;20498;-73
2022/11/18 06:13:20;;;;;;;4.37;3.20;;;9.90;99.90;;;;;;5049150;28;20523;-73
2022/11/18 06:16:07;;;;;;;3.70;2.60;;;9.90;99.90;;;;;;5047362;28;20467;-73
2022/11/18 06:18:53;;;;;;;4.10;3.10;;;9.80;99.90;;;;;;5048700;28;20513;-73
2022/11/18 06:21:38;;;;;;;8.07;2.63;;;9.80;99.90;;;;;;5047713;28;20436;-73
2022/11/18 06:24:24;;;;;;;5.63;2.97;;;9.80;99.90;;;;;;5066460;28;20505;-73
2022/11/18 06:27:12;;;;;;;6.90;3.60;;;9.70;99.90;;;;;;5044693;28;20443;-73
2022/11/18 06:29:57;;;;;;;4.40;3.23;;;9.70;99.90;;;;;;5042878;28;21001;-73
2022/11/18 06:32:43;;;;;;;3.10;2.80;;;9.60;99.90;;;;;;5052760;28;20435;-73
2022/11/18 06:35:29;;;;;;;3.77;2.77;;;9.60;99.90;;;;;;5057752;28;20569;-73
2022/11/18 06:38:15;;;;;;;3.83;2.87;;;9.50;99.90;;;;;;5042701;28;20455;-73
2022/11/18 06:41:01;;;;;;;4.97;3.10;;;9.50;99.90;;;;;;5056915;28;20493;-73
2022/11/18 06:43:48;;;;;;;4.40;3.30;;;9.40;99.90;;;;;;5060713;28;20534;-73
2022/11/18 06:49:36;;;;;;;3.80;2.60;;;9.40;99.90;;;;;;5045307;28;20471;-73
2022/11/18 06:52:22;;;;;;;2.30;2.10;;;9.60;99.90;;;;;;5053457;28;20565;-73
2022/11/18 06:55:09;;;;;;;4.90;2.60;;;9.60;99.90;;;;;;5047247;28;20553;-73
2022/11/18 06:57:56;;;;;;;4.47;2.80;;;9.60;99.90;;;;;;5044278;28;20456;-73
2022/11/18 07:00:43;;;;;;;3.63;1.90;;;9.60;99.90;;;;;;5045124;28;20490;-72
2022/11/18 07:03:28;;;;;;;2.20;1.73;;;9.60;99.90;;;;;;5050781;28;20416;-73
2022/11/18 07:06:16;;;;;;;3.00;1.80;;;9.70;99.90;;;;;;5046414;28;20949;-73
2022/11/18 07:09:04;;;;;;;2.97;2.20;;;9.60;99.90;;;;;;5045648;28;20467;-73
2022/11/18 07:11:49;;;;;;;5.20;1.90;;;9.60;99.90;;;;;;5042433;28;20437;-73
2022/11/18 07:14:35;;;;;;;2.90;1.73;;;9.70;99.90;;;;;;5054002;28;20813;-73
2022/11/18 07:17:22;;;;;;;4.30;2.20;;;9.60;99.90;;;;;;5059031;28;20439;-73
2022/11/18 07:20:08;;;;;;;3.93;2.27;;;9.50;99.90;;;;;;5049702;28;20571;-73
2022/11/18 07:22:54;;;;;;;3.60;2.03;;;9.60;99.90;;;;;;5058135;28;20922;-73
2022/11/18 07:25:39;;;;;;;4.73;2.20;;;9.60;99.90;;;;;;5058899;28;20454;-73
2022/11/18 07:28:25;;;;;;;2.20;1.53;;;9.50;99.90;;;;;;5046239;28;20421;-73
2022/11/18 07:31:13;;;;;;;2.47;1.60;;;9.40;99.90;;;;;;5058457;28;20443;-73
2022/11/18 07:34:00;;;;;;;2.20;1.57;;;9.40;99.90;;;;;;5054847;28;20438;-73
2022/11/18 07:36:46;;;;;;;2.93;1.33;;;9.40;99.90;;;;;;5044207;28;20490;-73
2022/11/18 07:39:32;;;;;;;3.30;1.43;;;9.30;99.90;;;;;;5058239;28;20435;-73
2022/11/18 07:42:17;;;;;;;6.00;1.17;;;9.40;99.90;;;;;;5065011;28;20506;-73
2022/11/18 07:45:03;;;;;;;1.93;1.20;;;9.50;99.90;;;;;;5068612;28;21013;-73
2022/11/18 07:47:49;;;;;;;3.10;1.70;;;9.40;99.90;;;;;;5044761;28;20501;-73
2022/11/18 07:50:36;;;;;;;2.83;1.93;;;9.40;99.90;;;;;;5051479;28;20463;-73
2022/11/18 07:53:21;;;;;;;3.00;1.33;;;9.50;99.90;;;;;;5049202;28;20547;-73
2022/11/18 07:56:08;;;;;;;3.73;2.20;;;9.60;99.90;;;;;;5052997;28;20968;-73
2022/11/18 07:58:54;;;;;;;3.27;1.90;;;9.60;99.90;;;;;;5054248;28;20510;-73
2022/11/18 08:01:39;;;;;;;2.50;2.10;;;9.60;99.90;;;;;;5043162;28;20468;-73
2022/11/18 08:04:25;;;;;;;3.13;2.30;;;9.60;99.90;;;;;;5054002;28;20466;-73
2022/11/18 08:07:12;;;;;;;3.33;3.03;;;9.70;99.90;;;;;;5053175;28;20443;-73
2022/11/18 08:09:57;;;;;;;4.53;3.10;;;9.80;99.90;;;;;;5050048;28;20443;-73
2022/11/18 08:12:43;;;;;;;4.00;3.53;;;9.90;99.90;;;;;;5056017;28;20935;-73
2022/11/18 08:15:29;;;;;;;6.30;3.70;;;9.90;99.90;;;;;;5042882;28;20819;-73
2022/11/18 08:18:14;;;;;;;4.77;3.80;;;9.90;99.90;;;;;;5046639;28;20428;-73
2022/11/18 08:21:02;;;;;;;6.20;3.40;;;9.90;99.90;;;;;;5052462;28;20421;-73
2022/11/18 08:23:51;;;;;;;8.00;3.20;;;9.90;99.90;;;;;;5056335;28;20455;-73
2022/11/18 08:26:37;;;;;;;2.83;2.53;;;9.80;99.90;;;;;;5043626;28;20439;-73
2022/11/18 08:29:23;;;;;;;5.07;2.90;;;9.70;99.90;;;;;;5049192;28;20878;-73
2022/11/18 08:32:08;;;;;;;4.50;2.80;;;9.80;99.90;;;;;;5049017;28;20452;-73
2022/11/18 08:34:54;;;;;;;3.80;2.83;;;9.90;99.90;;;;;;5057404;28;20915;-73
2022/11/18 08:37:40;;;;;;;6.33;2.40;;;10.00;99.90;;;;;;5052086;28;20793;-73
2022/11/18 08:40:27;;;;;;;3.60;2.93;;;10.10;99.90;;;;;;5056093;28;20515;-73
2022/11/18 08:43:12;;;;;;;4.00;2.90;;;10.10;99.90;;;;;;5060872;28;20552;-73
2022/11/18 08:45:58;;;;;;;3.60;3.20;;;10.20;99.90;;;;;;5047454;28;20809;-73
2022/11/18 08:48:44;;;;;;;5.80;2.87;;;10.20;99.90;;;;;;5050355;28;20531;-73
2022/11/18 08:51:29;;;;;;;3.40;2.67;;;10.10;99.90;;;;;;5048126;28;20437;-73
2022/11/18 08:54:15;;;;;;;4.57;2.90;;;10.00;99.90;;;;;;5050574;28;20464;-73
2022/11/18 08:57:02;;;;;;;3.70;2.53;;;10.10;99.90;;;;;;5043431;28;20538;-72
2022/11/18 08:59:47;;;;;;;5.27;2.70;;;10.10;99.90;;;;;;5048036;28;20432;-73
2022/11/18 09:02:33;;;;;;;3.40;2.40;;;10.10;99.90;;;;;;5053138;28;20419;-73
2022/11/18 09:05:18;;;;;;;2.70;2.30;;;10.10;99.90;;;;;;5048007;28;21430;-71
2022/11/18 09:08:05;;;;;;;2.50;2.00;;;10.20;99.90;;;;;;5056207;28;20477;-71
2022/11/18 09:10:50;;;;;;;2.67;1.73;;;10.10;99.90;;;;;;5044267;28;20455;-71
2022/11/18 09:13:37;;;;;;;3.70;2.67;;;10.10;99.90;;;;;;5053347;28;20442;-71
2022/11/18 09:16:23;;;;;;;3.10;2.20;;;10.10;99.90;;;;;;5046679;28;20466;-71
2022/11/18 09:19:08;;;;;;;2.87;2.47;;;10.00;99.90;;;;;;5050102;28;20443;-71
2022/11/18 09:21:54;;;;;;;3.40;2.60;;;10.00;99.90;;;;;;5045961;28;20448;-72
2022/11/18 09:24:39;;;;;;;3.23;2.20;;;10.00;99.90;;;;;;5044052;28;20451;-71
2022/11/18 09:27:25;;;;;;;3.67;1.60;;;10.00;99.90;;;;;;5041117;28;20832;-72
2022/11/18 09:30:13;;;;;;;4.33;1.53;;;9.90;99.90;;;;;;5041438;28;20846;-73
2022/11/18 09:32:58;;;;;;;2.10;1.57;;;9.90;99.90;;;;;;5061411;28;20422;-72
2022/11/18 09:35:44;;;;;;;2.37;1.63;;;10.00;99.90;;;;;;5041449;28;20996;-72
2022/11/18 09:38:30;;;;;;;2.47;1.73;;;9.90;99.90;;;;;;5044517;28;20440;-72
2022/11/18 09:41:26;;;;;;;4.63;2.40;;;10.00;99.90;;;;;;5045798;28;20448;-72
2022/11/18 09:44:36;;;;;;;2.80;1.80;;;9.90;99.90;;;;;;5044293;28;20440;-72
2022/11/18 09:47:27;;;;;;;2.70;1.60;;;9.90;99.90;;;;;;5044054;28;20887;-72
2022/11/18 09:50:17;;;;;;;1.97;1.57;;;9.90;99.90;;;;;;5045554;28;20475;-72
2022/11/18 09:53:11;;;;;;;2.50;1.60;;;10.00;99.90;;;;;;5045110;28;20420;-72
2022/11/18 09:55:57;;;;;;;10.80;2.13;;;10.00;99.90;;;;;;5046236;28;20464;-72
2022/11/18 09:58:44;;;;;;;4.73;1.70;;;10.10;99.90;;;;;;5049719;28;20807;-72
2022/11/18 10:01:30;;;;;;;3.83;2.30;;;10.10;99.90;;;;;;5052312;28;20446;-72
2022/11/18 10:04:18;;;;;;;7.23;2.43;;;10.10;99.90;;;;;;5055346;28;20505;-74
2022/11/18 10:07:13;;;;;;;3.67;2.40;;;10.30;99.90;;;;;;5048426;28;20578;-73
2022/11/18 10:10:02;;;;;;;2.90;2.30;;;10.40;99.90;;;;;;5049934;28;21012;-73
2022/11/18 10:12:55;;;;;;;2.47;1.90;;;10.40;99.90;;;;;;5055394;28;20838;-73
2022/11/18 10:15:52;;;;;;;4.20;2.30;;;10.40;99.90;;;;;;5041252;28;20817;-73
2022/11/18 10:18:44;;;;;;;2.50;2.20;;;10.40;99.90;;;;;;5057743;28;20431;-74
2022/11/18 10:21:44;;;;;;;4.47;2.53;;;10.50;99.90;;;;;;5055066;28;20464;-74
2022/11/18 10:24:35;;;;;;;3.37;2.67;;;10.50;99.90;;;;;;5034127;28;20478;-72
2022/11/18 10:27:21;;;;;;;5.80;4.37;;;10.50;99.90;;;;;;5038756;28;20463;-73
2022/11/18 10:30:13;;;;;;;6.77;4.57;;;10.40;99.90;;;;;;5038774;28;20826;-72
2022/11/18 10:33:01;;;;;;;6.20;4.70;;;10.40;99.90;;;;;;5042710;28;20586;-72
2022/11/18 10:35:46;;;;;;;5.80;5.07;;;10.30;99.90;;;;;;5041639;28;20650;-74
2022/11/18 10:38:33;;;;;;;5.80;4.30;;;10.30;99.90;;;;;;5051391;28;20452;-74
2022/11/18 10:41:21;;;;;;;6.60;4.80;;;10.30;99.90;;;;;;5042767;28;20444;-71
2022/11/18 10:44:26;;;;;;;5.43;4.03;;;10.40;99.90;;;;;;5041871;28;20487;-74
2022/11/18 10:47:29;;;;;;;4.93;4.43;;;10.40;99.90;;;;;;5045059;28;20446;-73
2022/11/18 10:50:29;;;;;;;6.90;4.43;;;10.50;99.90;;;;;;5055268;28;20562;-74
2022/11/18 10:53:30;;;;;;;7.33;6.60;;;10.50;99.90;;;;;;5051229;28;20678;-73
2022/11/18 10:56:17;;;;;;;7.70;6.97;;;10.40;99.90;;;;;;5046712;28;20559;-74
2022/11/18 10:59:03;;;;;;;10.30;6.47;;;10.30;99.90;;;;;;5053990;28;20518;-73
2022/11/18 11:01:58;;;;;;;8.13;7.07;;;10.20;99.90;;;;;;5043940;28;20432;-74
2022/11/18 11:04:45;;;;;;;7.50;6.80;;;10.20;99.90;;;;;;5043097;28;21059;-73
2022/11/18 11:07:34;;;;;;;8.83;7.00;;;10.30;99.90;;;;;;5043926;28;20506;-74
2022/11/18 11:10:23;;;;;;;8.90;7.40;;;10.40;99.90;;;;;;5061656;28;20513;-73
2022/11/18 11:13:16;;;;;;;8.30;7.50;;;10.40;99.90;;;;;;5042445;28;20435;-73
2022/11/18 11:16:05;;;;;;;11.10;8.07;;;10.40;99.90;;;;;;5043127;28;20463;-72
2022/11/18 11:18:55;;;;;;;8.80;7.87;;;10.40;99.90;;;;;;5053565;28;20432;-74
2022/11/18 11:21:41;;;;;;;10.90;9.03;;;10.40;99.90;;;;;;5036973;28;21097;-75
2022/11/18 11:24:28;;;;;;;8.47;7.67;;;10.40;99.90;;;;;;5053109;28;20486;-74
2022/11/18 11:27:39;;;;;;;9.23;8.27;;;10.40;99.90;;;;;;5065450;28;20419;-75
2022/11/18 11:30:26;;;;;;;8.00;7.20;;;10.50;99.90;;;;;;5064654;28;20486;-75
2022/11/18 11:33:31;;;;;;;9.80;8.17;;;10.50;99.90;;;;;;5060904;28;20945;-75
2022/11/18 11:36:40;;;;;;;8.63;7.53;;;10.60;99.90;;;;;;5043831;28;20436;-75
2022/11/18 11:39:44;;;;;;;9.17;8.23;;;10.60;99.90;;;;;;5064650;28;20423;-75
2022/11/18 11:42:41;;;;;;;8.03;7.23;;;10.70;99.90;;;;;;5055277;28;20426;-75
2022/11/18 11:45:39;;;;;;;9.40;8.50;;;10.70;99.90;;;;;;5048125;28;20549;-74
2022/11/18 11:48:35;;;;;;;9.50;8.60;;;10.70;99.90;;;;;;5067717;28;20432;-76
2022/11/18 11:51:31;;;;;;;10.80;9.70;;;10.70;99.90;;;;;;5068360;28;20857;-75
2022/11/18 11:54:34;;;;;;;9.57;8.67;;;10.70;99.90;;;;;;5058248;28;20975;-73
2022/11/18 11:57:31;;;;;;;9.37;8.37;;;10.80;99.90;;;;;;5061931;28;20406;-76
2022/11/18 12:00:18;;;;;;;10.13;9.23;;;10.80;99.90;;;;;;5060496;28;20428;-75
2022/11/18 12:03:17;;;;;;;11.87;9.07;;;10.90;99.90;;;;;;5055332;28;20452;-73
2022/11/18 12:06:02;;;;;;;12.40;11.10;;;11.00;99.90;;;;;;5051180;28;20444;-75
2022/11/18 12:09:03;;;;;;;12.30;10.00;;;11.10;99.90;;;;;;5046073;28;20942;-75
2022/11/18 12:11:56;;;;;;;12.17;10.97;;;11.10;99.90;;;;;;5043155;28;20471;-76
2022/11/18 12:14:47;;;;;;;11.73;10.50;;;11.10;99.90;;;;;;5046817;28;20598;-73
2022/11/18 12:17:40;;;;;;;11.87;9.97;;;11.20;99.90;;;;;;5047627;28;20444;-76
2022/11/18 12:20:41;;;;;;;11.13;10.03;;;11.20;99.90;;;;;;5057931;28;20504;-74
2022/11/18 12:23:27;;;;;;;11.10;9.90;;;11.20;99.90;;;;;;5052698;28;20541;-73
2022/11/18 12:26:34;;;;;;;14.07;9.53;;;11.20;99.90;;;;;;5064799;28;20773;-75
2022/11/18 12:29:24;;;;;;;9.50;8.50;;;11.30;99.90;;;;;;5066758;28;20422;-75
2022/11/18 12:32:42;;;;;;;10.90;9.20;;;11.30;99.90;;;;;;5059563;28;20467;-75
2022/11/18 12:35:30;;;;;;;9.80;8.40;;;11.40;99.90;;;;;;4969442;28;20834;-75
2022/11/18 12:38:32;;;;;;;10.67;9.37;;;11.40;99.90;;;;;;5060270;28;20812;-75
2022/11/18 12:45:16;;;;;;;9.63;8.23;;;11.40;99.90;;;;;;5033034;28;20514;-75
2022/11/18 12:48:04;;;;;;;9.13;8.13;;;11.50;99.90;;;;;;5049467;28;20960;-75
2022/11/18 12:50:51;;;;;;;7.73;6.93;;;11.50;99.90;;;;;;5047420;28;20837;-75
2022/11/18 12:53:39;;;;;;;7.67;6.77;;;11.50;99.90;;;;;;5046666;28;20420;-76
2022/11/18 12:56:27;;;;;;;7.43;6.73;;;11.50;99.90;;;;;;5057662;28;20520;-75
2022/11/18 12:59:13;;;;;;;11.50;7.60;;;11.40;99.90;;;;;;5050208;28;20472;-75
2022/11/18 13:02:16;;;;;;;8.93;7.00;;;11.30;99.90;;;;;;5043491;28;20435;-75
2022/11/18 13:05:11;;;;;;;7.70;7.00;;;11.30;99.90;;;;;;5047704;28;20549;-75
2022/11/18 13:08:14;;;;;;;7.23;4.23;;;11.30;99.90;;;;;;5054815;28;20443;-75
2022/11/18 13:20:36;;;;;;;4.20;1.93;;;10.40;99.90;;;;;;5052653;28;20955;-75
2022/11/18 13:26:34;;;;;;;3.10;1.60;;;10.50;99.90;;;;;;5050727;28;20478;-75
2022/11/18 13:29:38;;;;;;;2.73;1.43;;;10.50;99.90;;;;;;5058343;28;20452;-75
2022/11/18 13:32:26;;;;;;;8.67;2.33;;;10.50;99.90;;;;;;5043066;28;20483;-73
2022/11/18 13:35:14;;;;;;;4.43;2.17;;;10.50;99.90;;;;;;5051035;28;20438;-74
2022/11/18 13:38:02;;;;;;;2.20;1.33;;;10.50;99.90;;;;;;5046532;28;20421;-75
2022/11/18 13:41:03;;;;;;;3.10;1.30;;;10.60;99.90;;;;;;5049832;28;20444;-74
2022/11/18 13:43:48;;;;;;;4.90;1.40;;;10.60;99.90;;;;;;5041823;28;20467;-73
2022/11/18 13:46:34;;;;;;;4.00;1.30;;;10.70;99.90;;;;;;5042829;28;20480;-75
2022/11/18 13:49:27;;;;;;;6.47;1.70;;;10.70;99.90;;;;;;5054740;28;20447;-75
2022/11/18 13:52:17;;;;;;;2.50;1.50;;;10.60;99.90;;;;;;5046858;28;20953;-74
2022/11/18 13:55:10;;;;;;;3.63;1.73;;;10.60;99.90;;;;;;5040435;28;20531;-74
2022/11/18 13:58:01;;;;;;;2.27;1.50;;;10.70;99.90;;;;;;5050599;28;20501;-75
2022/11/18 14:00:56;;;;;;;3.10;1.60;;;10.70;99.90;;;;;;5056076;28;20500;-76
2022/11/18 14:03:49;;;;;;;4.20;1.63;;;10.70;99.90;;;;;;5043654;28;20440;-76
2022/11/18 14:06:37;;;;;;;3.80;1.77;;;10.70;99.90;;;;;;5046327;28;20494;-76
2022/11/18 14:09:25;;;;;;;2.77;1.63;;;10.70;99.90;;;;;;5047624;28;20932;-76
2022/11/18 14:12:24;;;;;;;3.03;1.70;;;10.70;99.90;;;;;;5043398;28;20509;-75
2022/11/18 14:15:14;;;;;;;4.20;1.30;;;10.80;99.90;;;;;;5052980;28;20495;-76
2022/11/18 14:18:01;;;;;;;2.93;1.50;;;10.80;99.90;;;;;;5053777;28;20554;-74
2022/11/18 14:20:51;;;;;;;6.73;2.50;;;10.80;99.90;;;;;;5040188;28;20452;-76
2022/11/18 14:23:37;;;;;;;5.30;3.37;;;10.90;99.90;;;;;;5044973;28;20451;-76
2022/11/18 14:26:28;;;;;;;6.57;3.60;;;10.80;99.90;;;;;;5053884;28;20443;-76
2022/11/18 14:29:21;;;;;;;11.60;3.90;;;10.80;99.90;;;;;;5046652;28;20833;-76
2022/11/18 14:32:14;;;;;;;6.90;3.20;;;10.80;99.90;;;;;;5048129;28;20454;-76
2022/11/18 14:35:00;;;;;;;9.60;3.90;;;10.80;99.90;;;;;;5053326;28;20655;-76
2022/11/18 14:37:46;;;;;;;3.70;3.17;;;10.90;99.90;;;;;;5047373;28;20464;-74
2022/11/18 14:40:32;;;;;;;5.63;3.30;;;11.00;99.90;;;;;;5044744;28;21010;-76
2022/11/18 14:43:18;;;;;;;4.10;3.37;;;11.00;99.90;;;;;;5042177;28;20582;-76
2022/11/18 14:46:07;;;;;;;13.97;3.67;;;11.10;99.90;;;;;;5046099;28;20497;-72
2022/11/18 14:48:53;;;;;;;8.23;3.40;;;11.10;99.90;;;;;;5055081;28;21012;-72
2022/11/18 14:51:38;;;;;;;2.70;2.30;;;11.10;99.90;;;;;;5038847;28;21000;-76
2022/11/18 14:54:25;;;;;;;5.20;2.10;;;11.00;99.90;;;;;;5051169;28;20629;-76
2022/11/18 14:57:15;;;;;;;4.00;2.17;;;10.90;99.90;;;;;;5049176;28;20414;-75
2022/11/18 15:00:01;;;;;;;4.30;1.93;;;10.70;99.90;;;;;;5047971;28;20443;-75
2022/11/18 15:02:47;;;;;;;2.97;1.87;;;10.70;99.90;;;;;;5037033;28;20831;-75
2022/11/18 15:05:33;;;;;;;4.00;1.80;;;10.60;99.90;;;;;;5048807;28;20826;-76
2022/11/18 15:08:18;;;;;;;3.63;2.27;;;10.50;99.90;;;;;;5053978;28;20462;-74
2022/11/18 15:11:04;;;;;;;3.70;1.40;;;10.40;99.90;;;;;;5042124;28;20485;-75
2022/11/18 15:13:49;;;;;;;5.93;1.60;;;10.40;99.90;;;;;;5047177;28;21118;-75
2022/11/18 15:16:35;;;;;;;10.40;1.70;;;10.50;99.90;;;;;;5041671;28;20450;-75